Aloha, Louisiana
Current Conditions -  °F | °C
As of 10:53 PM on Tuesday 25 Nov 2014 (Local Time) from KAEX Reporting Station
Clear Clear  
Wind Chill:   Ceiling: Unl
Heat Index:   Visibility: 10mi
Dew Point:   Wind: 3mph
Humidity: 93%   Direction: 120°ESE
Pressure: 30.21"   Gusts: NA
Location:  31.503°N, 92.6476°W
Report Text: KAEX 260453Z AUTO 12003KT 10SM CLR 03/02 A3021 RMK AO2 SLP236 T00330022
Loading
Personal Weather Stations






























Interactive Weather Map New forecast layout! Learn more

10-Day Weather Forecast

Advertisements
Track Severe Weather on mobile